Nemiscau, Canada
Current Conditions -  °F | °C
As of 9:14 PM on Saturday 22 Nov 2014 (Local Time) from CYNM Reporting Station
Overcast Overcast  
Wind Chill: 16°   Ceiling: 700
Heat Index: 27°   Visibility: 9mi
Dew Point: 25°   Wind: 12mph
Humidity: 93%   Direction: 320°NW
Pressure: 29.66"   Gusts: NA
Location:  51.32°N, 76.9°W
Report Text: CYNM 230214Z AUTO 32010KT 9SM BKN007 OVC010 M03/M04 A2966 RMK ICG PAST HR SLP062
Loading
Personal Weather Stations






























Interactive Weather Map New forecast layout! Learn more

10-Day Weather Forecast

Advertisements
Track Severe Weather on mobile